< Typhoon 201306 2013 Season Typhoon 201308 >
Typhoon 201307 (SOULIK)
General InformationTrack Information on Google MapsDetailed Wind InformationForecast History on Google MapsAccess Analytics MapList of All Images || NewsDisaster Info.WeblogTrackbackTyphoon FrontTwiphoonTyphoon Now!Typhoon ImaginationDisaster Info. XMLResourceGoogle EarthGE AnimationAtom FeedGeoJSON
Detalied Best Track (Time Zone = UTC)
Year Month Day Hour Lat. Long. Pressure (hPa) Wind (kt) Class Image Chart
2013 7 7 00 19.0 151.0 1010 0 2 Image Chart
2013 7 7 06 19.1 149.3 1010 0 2 Image Chart
2013 7 7 12 19.1 147.9 1010 0 2 Image Chart
2013 7 7 18 18.9 146.5 1006 0 2 Image Chart
2013 7 8 00 18.9 145.4 1002 35 3 Image Chart
2013 7 8 06 19.0 143.9 994 45 3 Image Chart
2013 7 8 12 19.2 142.7 985 50 4 Image Chart
2013 7 8 18 19.4 141.5 975 60 4 Image Chart
2013 7 9 00 19.6 140.4 970 65 5 Image Chart
2013 7 9 06 20.0 139.4 955 80 5 Image Chart
2013 7 9 12 20.3 138.1 945 85 5 Image Chart
2013 7 9 18 20.7 137.1 935 90 5 Image Chart
2013 7 10 00 21.1 135.8 925 100 5 Image Chart
2013 7 10 06 21.4 134.8 925 100 5 Image Chart
2013 7 10 12 21.8 133.5 925 100 5 Image Chart
2013 7 10 18 21.9 132.3 930 95 5 Image Chart
2013 7 11 00 22.1 130.9 935 90 5 Image Chart
2013 7 11 06 22.4 129.8 940 90 5 Image Chart
2013 7 11 12 22.4 128.4 940 90 5 Image Chart
2013 7 11 15 22.5 127.7 940 90 5 Image Chart
2013 7 11 18 22.6 127.0 940 90 5 Image Chart
2013 7 11 21 22.6 126.5 940 90 5 Image Chart
2013 7 12 00 22.8 125.9 950 80 5 Image Chart
2013 7 12 03 23.0 125.4 950 80 5 Image Chart
2013 7 12 06 23.2 124.9 950 80 5 Image Chart
2013 7 12 09 23.6 124.3 950 80 5 Image Chart
2013 7 12 12 23.9 123.9 950 80 5 Image Chart
2013 7 12 15 24.3 123.1 945 85 5 Image Chart
2013 7 12 18 24.8 122.3 950 80 5 Image Chart
2013 7 12 21 24.8 121.4 960 75 5 Image Chart
2013 7 13 00 25.0 121.2 970 60 4 Image Chart
2013 7 13 06 25.9 119.9 980 55 4 Image Chart
2013 7 13 12 26.2 118.3 990 50 4 Image Chart
2013 7 13 18 27.0 117.2 994 40 3 Image Chart
2013 7 14 00 28.0 116.2 998 0 2 Image Chart
2013 7 14 06 29.2 115.8 998 0 2 Image Chart
2013 7 14 12 30.7 115.7 1000 0 2 Image Chart
Japan Meteorological Agency Best Track Data | Correction Date : 2013-08-02
< Typhoon 201306 2013 Season Typhoon 201308 >

Help